Towncrest Village, Pennsylvania
Current Conditions -  °F | °C
As of 12:54 AM on Tuesday 27 Jan 2015 (Local Time) from KIPT Reporting Station
Light Snow Light Snow  
Wind Chill: 17°   Ceiling: 2800
Heat Index: 24°   Visibility: 6mi
Dew Point: 19°   Wind: 6mph
Humidity: 81%   Direction: 260°W
Pressure: 29.8"   Gusts: NA
Location:  41.246°N, 77.0167°W
Report Text: KIPT 270554Z AUTO 26005KT 6SM -SN OVC028 M04/M07 A2980 RMK AO2 SLP100 P0000 60006 T10441072 11044 21050 56009
Loading
Personal Weather Stations






























Interactive Weather Map New forecast layout! Learn more

10-Day Weather Forecast

Advertisements
Track Severe Weather on mobile